Time;durP1;ratioP1;P1;durP2;ratioP2;P2;SDS_P1;SDS_P2;PMS_P1;PMS_P2;Temp;Humidity;BMP_temperature;BMP_pressure;BME280_temperature;BME280_humidity;BME280_pressure;Samples;Min_cycle;Max_cycle;Signal;HPM_P1;HPM_P2
2024/02/16 00:02:15;;;;;;;9.27;6.93;;;11.50;99.90;;;;;;5000328;28;20465;-59
2024/02/16 00:04:42;;;;;;;10.13;8.00;;;11.50;99.90;;;;;;5019802;28;20442;-61
2024/02/16 00:07:09;;;;;;;9.47;6.30;;;11.50;99.90;;;;;;5019664;28;20465;-61
2024/02/16 00:09:36;;;;;;;11.10;7.00;;;11.50;99.90;;;;;;5016143;28;20528;-61
2024/02/16 00:12:04;;;;;;;14.93;6.70;;;11.40;99.90;;;;;;5013105;28;20520;-60
2024/02/16 00:14:31;;;;;;;12.33;9.30;;;11.40;99.90;;;;;;5010279;28;20611;-61
2024/02/16 00:16:58;;;;;;;12.93;7.10;;;11.40;99.90;;;;;;5014372;28;20521;-58
2024/02/16 00:19:26;;;;;;;11.73;7.57;;;11.40;99.90;;;;;;4998305;28;20536;-61
2024/02/16 00:21:53;;;;;;;13.67;8.00;;;11.40;99.90;;;;;;5002233;28;20808;-59
2024/02/16 00:24:20;;;;;;;15.60;8.77;;;11.40;99.90;;;;;;5017062;28;20445;-61
2024/02/16 00:26:47;;;;;;;11.40;9.60;;;11.40;99.90;;;;;;4997758;28;20504;-61
2024/02/16 00:29:15;;;;;;;11.10;7.30;;;11.30;99.90;;;;;;5006282;28;20528;-61
2024/02/16 00:31:42;;;;;;;10.50;8.40;;;11.40;99.90;;;;;;5005901;28;20486;-60
2024/02/16 00:34:10;;;;;;;9.80;8.43;;;11.40;99.90;;;;;;4997299;28;20450;-61
2024/02/16 00:36:37;;;;;;;18.93;10.40;;;11.30;99.90;;;;;;5014134;28;20475;-58
2024/02/16 00:39:04;;;;;;;16.23;10.10;;;11.30;99.90;;;;;;5017041;28;20975;-58
2024/02/16 00:41:31;;;;;;;18.33;10.83;;;11.30;99.90;;;;;;5017148;28;20477;-59
2024/02/16 00:43:58;;;;;;;14.13;9.40;;;11.20;99.90;;;;;;5008511;28;20881;-58
2024/02/16 00:46:29;;;;;;;21.43;10.30;;;11.30;99.90;;;;;;5017071;28;20495;-59
2024/02/16 00:48:56;;;;;;;11.70;8.63;;;11.30;99.90;;;;;;5016959;28;20461;-59
2024/02/16 00:51:25;;;;;;;17.43;10.67;;;11.30;99.90;;;;;;5015757;28;20441;-59
2024/02/16 00:53:52;;;;;;;16.97;9.57;;;11.30;99.90;;;;;;5001548;28;20453;-60
2024/02/16 00:56:19;;;;;;;13.93;9.43;;;11.30;99.90;;;;;;5001027;28;20438;-60
2024/02/16 00:58:46;;;;;;;11.30;9.10;;;11.30;99.90;;;;;;5000421;28;20469;-60
2024/02/16 01:01:13;;;;;;;15.80;9.80;;;11.30;99.90;;;;;;5015631;28;20489;-60
2024/02/16 01:03:42;;;;;;;12.40;9.13;;;11.20;99.90;;;;;;5015132;28;20456;-59
2024/02/16 01:06:10;;;;;;;16.00;9.90;;;11.30;99.90;;;;;;5007092;28;20521;-60
2024/02/16 01:08:37;;;;;;;18.67;10.27;;;11.30;99.90;;;;;;5014321;28;20480;-61
2024/02/16 01:11:04;;;;;;;13.57;8.90;;;11.30;99.90;;;;;;5015458;28;20532;-61
2024/02/16 01:13:32;;;;;;;11.67;9.23;;;11.30;99.90;;;;;;5015549;28;20913;-59
2024/02/16 01:15:59;;;;;;;17.43;9.80;;;11.30;99.90;;;;;;5010599;28;20461;-60
2024/02/16 01:18:26;;;;;;;14.20;9.93;;;11.30;99.90;;;;;;5002999;28;20537;-60
2024/02/16 01:20:54;;;;;;;14.67;9.87;;;11.30;99.90;;;;;;4995580;28;20446;-59
2024/02/16 01:23:21;;;;;;;13.10;9.80;;;11.30;99.90;;;;;;4996728;28;20505;-58
2024/02/16 01:25:48;;;;;;;15.67;10.50;;;11.20;99.90;;;;;;5015609;28;20506;-60
2024/02/16 01:28:15;;;;;;;16.97;10.60;;;11.20;99.90;;;;;;5008407;28;20450;-58
2024/02/16 01:30:42;;;;;;;15.43;10.87;;;11.20;99.90;;;;;;5012660;28;20871;-57
2024/02/16 01:33:08;;;;;;;14.50;10.63;;;11.10;99.90;;;;;;5010887;28;21068;-58
2024/02/16 01:35:36;;;;;;;16.57;11.20;;;11.10;99.90;;;;;;5016044;28;20473;-58
2024/02/16 01:38:05;;;;;;;19.43;12.53;;;11.10;99.90;;;;;;5016118;28;20492;-59
2024/02/16 01:40:32;;;;;;;14.80;11.47;;;11.00;99.90;;;;;;5015760;28;20469;-60
2024/02/16 01:42:59;;;;;;;18.07;12.20;;;11.00;99.90;;;;;;5015477;28;20533;-59
2024/02/16 01:45:26;;;;;;;20.00;12.80;;;11.00;99.90;;;;;;5013950;28;20490;-59
2024/02/16 01:47:54;;;;;;;16.03;11.47;;;11.10;99.90;;;;;;5014275;28;20473;-57
2024/02/16 01:50:22;;;;;;;14.80;10.50;;;11.10;99.90;;;;;;5015366;28;20479;-57
2024/02/16 01:52:50;;;;;;;15.80;11.73;;;11.10;99.90;;;;;;5016763;28;20517;-61
2024/02/16 01:55:21;;;;;;;14.77;10.00;;;11.00;99.90;;;;;;5016489;28;20448;-59
2024/02/16 01:57:49;;;;;;;20.60;12.30;;;11.00;99.90;;;;;;5015702;28;20445;-60
2024/02/16 02:00:17;;;;;;;18.80;11.90;;;11.00;99.90;;;;;;5015553;28;20468;-60
2024/02/16 02:02:47;;;;;;;16.10;10.67;;;10.90;99.90;;;;;;5016944;28;20454;-60
2024/02/16 02:05:14;;;;;;;20.00;13.83;;;10.90;99.90;;;;;;5017177;28;20520;-60
2024/02/16 02:07:41;;;;;;;17.70;12.43;;;10.90;99.90;;;;;;5017154;28;20539;-59
2024/02/16 02:10:09;;;;;;;18.77;12.60;;;10.80;99.90;;;;;;5015201;28;20536;-58
2024/02/16 02:12:38;;;;;;;19.93;13.00;;;10.80;99.90;;;;;;5015495;28;20512;-60
2024/02/16 02:15:05;;;;;;;21.50;13.33;;;10.80;99.90;;;;;;5015314;28;20528;-60
2024/02/16 02:17:32;;;;;;;17.13;11.23;;;10.80;99.90;;;;;;5018377;28;20449;-61
2024/02/16 02:19:59;;;;;;;19.93;11.60;;;10.80;99.90;;;;;;5019978;28;20505;-60
2024/02/16 02:22:27;;;;;;;17.33;12.37;;;10.70;99.90;;;;;;5020275;28;20437;-60
2024/02/16 02:24:55;;;;;;;20.00;12.30;;;10.70;99.90;;;;;;5019493;28;20961;-60
2024/02/16 02:27:22;;;;;;;21.50;13.10;;;10.70;99.90;;;;;;5018481;28;20445;-60
2024/02/16 02:29:49;;;;;;;16.97;12.67;;;10.60;99.90;;;;;;5019923;28;20503;-59
2024/02/16 02:32:16;;;;;;;18.57;13.60;;;10.70;99.90;;;;;;5019285;28;20496;-59
2024/02/16 02:34:44;;;;;;;22.63;12.77;;;10.60;99.90;;;;;;5019334;28;20532;-60
2024/02/16 02:37:11;;;;;;;21.67;13.67;;;10.60;99.90;;;;;;5019131;28;20448;-58
2024/02/16 02:39:39;;;;;;;16.70;11.90;;;10.60;99.90;;;;;;5019229;28;20508;-60
2024/02/16 02:42:08;;;;;;;17.40;12.60;;;10.50;99.90;;;;;;5018983;28;20949;-59
2024/02/16 02:44:35;;;;;;;20.30;14.47;;;10.50;99.90;;;;;;5019314;28;20515;-60
2024/02/16 02:47:02;;;;;;;22.40;14.40;;;10.50;99.90;;;;;;5019261;28;20452;-59
2024/02/16 02:49:28;;;;;;;24.57;13.77;;;10.50;99.90;;;;;;5018770;28;20563;-60
2024/02/16 02:51:55;;;;;;;21.67;13.10;;;10.50;99.90;;;;;;5019050;28;20535;-60
2024/02/16 02:54:21;;;;;;;21.50;14.60;;;10.50;99.90;;;;;;5018999;28;20234;-58
2024/02/16 02:56:50;;;;;;;19.37;13.17;;;10.50;99.90;;;;;;5018856;28;20480;-61
2024/02/16 02:59:16;;;;;;;22.53;13.57;;;10.50;99.90;;;;;;5018868;28;20477;-61
2024/02/16 03:01:45;;;;;;;25.57;14.03;;;10.50;99.90;;;;;;5018000;28;20875;-60
2024/02/16 03:04:12;;;;;;;21.87;12.97;;;10.60;99.90;;;;;;5018260;28;20536;-59
2024/02/16 03:06:39;;;;;;;20.27;13.13;;;10.50;99.90;;;;;;5019520;28;20473;-60
2024/02/16 03:09:06;;;;;;;19.00;13.70;;;10.60;99.90;;;;;;5019328;28;20500;-59
2024/02/16 03:11:33;;;;;;;20.83;13.17;;;10.60;99.90;;;;;;5019264;28;20449;-60
2024/02/16 03:14:01;;;;;;;17.97;12.50;;;10.60;99.90;;;;;;5019365;28;20491;-60
2024/02/16 03:16:28;;;;;;;21.10;13.07;;;10.60;99.90;;;;;;5018515;28;20446;-61
2024/02/16 03:18:56;;;;;;;18.87;13.27;;;10.60;99.90;;;;;;5018323;28;20480;-58
2024/02/16 03:21:26;;;;;;;18.07;11.60;;;10.60;99.90;;;;;;5018900;28;20479;-61
2024/02/16 03:23:53;;;;;;;18.60;11.83;;;10.60;99.90;;;;;;5018783;28;20871;-61
2024/02/16 03:26:21;;;;;;;18.13;12.10;;;10.60;99.90;;;;;;5019288;28;20448;-61
2024/02/16 03:28:49;;;;;;;21.17;12.97;;;10.60;99.90;;;;;;5017661;28;20496;-60
2024/02/16 03:31:18;;;;;;;21.33;13.20;;;10.60;99.90;;;;;;5017764;28;20445;-57
2024/02/16 03:33:45;;;;;;;18.60;12.53;;;10.60;99.90;;;;;;5017093;28;20576;-59
2024/02/16 03:36:13;;;;;;;22.30;13.07;;;10.60;99.90;;;;;;5018027;28;20495;-58
2024/02/16 03:38:42;;;;;;;21.20;13.90;;;10.60;99.90;;;;;;5018051;28;20446;-58
2024/02/16 03:41:14;;;;;;;18.43;13.07;;;10.60;99.90;;;;;;5018879;28;20450;-60
2024/02/16 03:43:41;;;;;;;23.40;15.43;;;10.70;99.90;;;;;;5021912;28;20538;-61
2024/02/16 03:46:08;;;;;;;20.33;12.40;;;10.70;99.90;;;;;;5021628;28;20449;-58
2024/02/16 03:48:36;;;;;;;20.57;12.80;;;10.70;99.90;;;;;;5018247;28;20478;-60
2024/02/16 03:51:03;;;;;;;15.70;12.20;;;10.70;99.90;;;;;;5017888;28;20845;-58
2024/02/16 03:53:30;;;;;;;24.50;12.53;;;10.70;99.90;;;;;;5017888;28;20477;-59
2024/02/16 03:55:57;;;;;;;21.67;13.10;;;10.70;99.90;;;;;;5017640;28;20867;-60
2024/02/16 03:58:28;;;;;;;17.40;11.80;;;10.70;99.90;;;;;;5017695;28;20527;-58
2024/02/16 04:00:55;;;;;;;16.67;11.13;;;10.70;99.90;;;;;;5016276;28;20447;-59
2024/02/16 04:03:22;;;;;;;15.13;11.33;;;10.60;99.90;;;;;;5014993;28;20576;-61
2024/02/16 04:05:50;;;;;;;17.80;11.03;;;10.60;99.90;;;;;;5015936;28;20812;-61
2024/02/16 04:08:17;;;;;;;18.50;11.90;;;10.60;99.90;;;;;;5015696;28;20485;-60
2024/02/16 04:10:45;;;;;;;19.97;12.60;;;10.60;99.90;;;;;;5015587;28;20556;-58
2024/02/16 04:13:12;;;;;;;20.70;13.00;;;10.60;99.90;;;;;;5016063;28;20488;-58
2024/02/16 04:15:39;;;;;;;19.40;11.90;;;10.60;99.90;;;;;;5017007;28;20469;-60
2024/02/16 04:18:06;;;;;;;16.40;11.70;;;10.60;99.90;;;;;;5017322;28;20445;-58
2024/02/16 04:20:33;;;;;;;18.90;12.10;;;10.60;99.90;;;;;;5018234;28;20534;-60
2024/02/16 04:23:01;;;;;;;20.70;12.80;;;10.60;99.90;;;;;;5018522;28;20476;-60
2024/02/16 04:25:28;;;;;;;18.80;12.73;;;10.60;99.90;;;;;;5018696;28;20988;-60
2024/02/16 04:27:55;;;;;;;15.50;11.87;;;10.60;99.90;;;;;;5018838;28;20863;-60
2024/02/16 04:30:22;;;;;;;16.30;11.23;;;10.60;99.90;;;;;;5017476;28;20465;-59
2024/02/16 04:32:50;;;;;;;16.60;10.20;;;10.60;99.90;;;;;;5018816;28;20460;-61
2024/02/16 04:35:16;;;;;;;13.27;9.23;;;10.60;99.90;;;;;;5017732;28;20442;-60
2024/02/16 04:37:43;;;;;;;15.73;12.67;;;10.70;99.90;;;;;;5016793;28;20869;-61
2024/02/16 04:40:13;;;;;;;19.30;10.90;;;10.60;99.90;;;;;;5016133;28;20496;-60
2024/02/16 04:42:43;;;;;;;15.00;10.67;;;10.70;99.90;;;;;;5015941;28;20495;-63
2024/02/16 04:45:12;;;;;;;14.80;10.70;;;10.60;99.90;;;;;;5018542;28;20446;-61
2024/02/16 04:47:39;;;;;;;17.33;10.67;;;10.60;99.90;;;;;;5017484;28;20456;-57
2024/02/16 04:50:09;;;;;;;13.87;10.00;;;10.60;99.90;;;;;;5017750;28;20484;-56
2024/02/16 04:52:38;;;;;;;15.57;10.50;;;10.60;99.90;;;;;;5017644;28;20803;-59
2024/02/16 04:55:06;;;;;;;18.57;10.57;;;10.60;99.90;;;;;;5017367;28;20812;-60
2024/02/16 04:57:35;;;;;;;14.37;9.70;;;10.60;99.90;;;;;;5017742;28;20789;-60
2024/02/16 05:00:02;;;;;;;20.57;10.53;;;10.60;99.90;;;;;;5016510;28;20504;-56
2024/02/16 05:02:29;;;;;;;15.23;9.27;;;10.60;99.90;;;;;;5016768;28;20783;-59
2024/02/16 05:04:55;;;;;;;18.33;10.90;;;10.60;99.90;;;;;;5015075;28;20438;-60
2024/02/16 05:07:22;;;;;;;18.07;10.60;;;10.60;99.90;;;;;;5015080;28;20473;-59
2024/02/16 05:09:55;;;;;;;16.20;9.67;;;10.60;99.90;;;;;;5015949;28;20560;-60
2024/02/16 05:12:22;;;;;;;13.83;10.07;;;10.60;99.90;;;;;;5016338;28;20480;-58
2024/02/16 05:14:52;;;;;;;12.43;9.40;;;10.60;99.90;;;;;;5016818;28;20656;-61
2024/02/16 05:17:20;;;;;;;17.67;10.80;;;10.60;99.90;;;;;;5016358;28;20453;-59
2024/02/16 05:19:47;;;;;;;12.50;7.90;;;10.60;99.90;;;;;;5016086;28;20476;-58
2024/02/16 05:22:15;;;;;;;14.87;9.67;;;10.60;99.90;;;;;;5015742;28;20441;-61
2024/02/16 05:24:41;;;;;;;18.00;9.70;;;10.60;99.90;;;;;;5016263;28;20442;-58
2024/02/16 05:27:10;;;;;;;13.57;9.13;;;10.50;99.90;;;;;;5016281;28;20556;-60
2024/02/16 05:29:37;;;;;;;14.27;9.83;;;10.50;99.90;;;;;;5016453;28;20469;-59
2024/02/16 05:32:06;;;;;;;13.80;9.77;;;10.40;99.90;;;;;;5016600;28;20532;-59
2024/02/16 05:34:37;;;;;;;14.07;9.50;;;10.40;99.90;;;;;;5016780;28;20592;-59
2024/02/16 05:37:06;;;;;;;14.33;9.50;;;10.40;99.90;;;;;;5017294;28;20516;-59
2024/02/16 05:39:35;;;;;;;15.83;10.90;;;10.40;99.90;;;;;;5015099;28;20476;-58
2024/02/16 05:42:02;;;;;;;13.53;9.43;;;10.40;99.90;;;;;;5015430;28;20445;-58
2024/02/16 05:44:29;;;;;;;12.30;9.87;;;10.40;99.90;;;;;;5015806;28;20456;-57
2024/02/16 05:46:57;;;;;;;13.37;9.60;;;10.30;99.90;;;;;;5016138;28;20453;-57
2024/02/16 05:49:25;;;;;;;11.83;8.83;;;10.30;99.90;;;;;;5015954;28;20474;-57
2024/02/16 05:54:42;;;;;;;16.87;10.20;;;10.30;99.90;;;;;;5017948;28;20505;-60
2024/02/16 05:57:09;;;;;;;15.37;9.80;;;10.30;99.90;;;;;;5018100;28;20476;-60
2024/02/16 05:59:37;;;;;;;13.97;9.40;;;10.20;99.90;;;;;;5018101;28;20469;-60
2024/02/16 06:02:05;;;;;;;13.40;8.70;;;10.20;99.90;;;;;;5018952;28;20436;-60
2024/02/16 06:04:33;;;;;;;15.57;9.97;;;10.20;99.90;;;;;;5019307;28;20513;-60
2024/02/16 06:07:00;;;;;;;11.60;8.90;;;10.20;99.90;;;;;;5019111;28;20475;-61
2024/02/16 06:09:33;;;;;;;15.33;8.90;;;10.20;99.90;;;;;;5018432;28;20468;-60
2024/02/16 06:12:03;;;;;;;16.87;8.83;;;10.10;99.90;;;;;;5019156;28;20492;-61
2024/02/16 06:14:30;;;;;;;14.77;10.30;;;10.10;99.90;;;;;;5018026;28;20484;-60
2024/02/16 06:16:57;;;;;;;18.73;11.43;;;10.10;99.90;;;;;;5018618;28;20531;-61
2024/02/16 06:19:24;;;;;;;14.00;9.27;;;10.10;99.90;;;;;;5019346;28;20500;-59
2024/02/16 06:21:52;;;;;;;17.80;10.83;;;10.20;99.90;;;;;;5019210;28;20451;-60
2024/02/16 06:24:19;;;;;;;15.17;10.33;;;10.20;99.90;;;;;;5017998;28;20512;-58
2024/02/16 06:26:46;;;;;;;15.33;10.77;;;10.20;99.90;;;;;;5018917;28;21031;-60
2024/02/16 06:29:13;;;;;;;17.13;11.50;;;10.10;99.90;;;;;;5019124;28;20471;-58
2024/02/16 06:31:40;;;;;;;14.07;10.60;;;10.10;99.90;;;;;;5019527;28;20866;-55
2024/02/16 06:34:08;;;;;;;19.37;11.90;;;10.10;99.90;;;;;;5019805;28;20917;-53
2024/02/16 06:36:35;;;;;;;16.90;11.93;;;10.20;99.90;;;;;;5019411;28;20528;-56
2024/02/16 06:39:04;;;;;;;17.03;11.13;;;10.20;99.90;;;;;;5019774;28;21301;-56
2024/02/16 06:41:30;;;;;;;19.10;9.97;;;10.40;99.90;;;;;;5020449;28;20512;-55
2024/02/16 06:43:57;;;;;;;14.37;11.27;;;10.30;99.90;;;;;;5020590;28;20474;-55
2024/02/16 06:46:24;;;;;;;15.70;9.57;;;10.40;99.90;;;;;;5020926;28;20505;-53
2024/02/16 06:48:52;;;;;;;15.50;10.07;;;10.40;99.90;;;;;;5020381;28;20470;-58
2024/02/16 06:51:19;;;;;;;12.70;9.57;;;10.40;99.90;;;;;;5020877;28;20511;-54
2024/02/16 06:53:46;;;;;;;17.63;10.53;;;10.50;99.90;;;;;;5019799;28;20480;-54
2024/02/16 06:56:14;;;;;;;17.63;11.33;;;10.50;99.90;;;;;;5020137;28;20540;-54
2024/02/16 06:58:41;;;;;;;14.80;9.33;;;10.60;99.90;;;;;;5033429;22;20563;-59
2024/02/16 07:01:08;;;;;;;14.30;10.07;;;10.60;99.90;;;;;;4956385;28;20456;-57
2024/02/16 07:03:36;;;;;;;19.47;10.80;;;10.60;99.90;;;;;;4957011;28;20436;-61
2024/02/16 07:06:03;;;;;;;15.33;9.90;;;10.60;99.90;;;;;;4957443;29;20450;-59
2024/02/16 07:08:30;;;;;;;18.60;10.57;;;10.60;99.90;;;;;;4956158;28;20448;-57
2024/02/16 07:10:57;;;;;;;14.50;10.63;;;10.60;99.90;;;;;;4955659;28;20962;-59
2024/02/16 07:13:25;;;;;;;16.13;11.77;;;10.60;99.90;;;;;;4956075;28;20561;-57
2024/02/16 07:15:52;;;;;;;13.47;9.40;;;10.60;99.90;;;;;;4955917;29;20451;-59
2024/02/16 07:18:19;;;;;;;17.07;10.83;;;10.60;99.90;;;;;;4956008;28;20535;-65
2024/02/16 07:20:46;;;;;;;13.07;9.97;;;10.60;99.90;;;;;;4967782;28;20477;-66
2024/02/16 07:23:12;;;;;;;13.53;10.47;;;10.60;99.90;;;;;;4955813;28;20892;-65
2024/02/16 07:25:39;;;;;;;17.53;11.40;;;10.60;99.90;;;;;;4957217;28;20531;-65
2024/02/16 07:28:06;;;;;;;20.23;12.07;;;10.60;99.90;;;;;;4957364;28;20531;-65
2024/02/16 07:30:37;;;;;;;15.70;9.73;;;10.50;99.90;;;;;;4957749;28;20547;-64
2024/02/16 07:33:05;;;;;;;16.87;10.33;;;10.50;99.90;;;;;;4971481;28;20462;-65
2024/02/16 07:35:32;;;;;;;14.67;9.60;;;10.50;99.90;;;;;;4961122;28;20908;-65
2024/02/16 07:37:59;;;;;;;15.23;10.20;;;10.50;99.90;;;;;;4966511;28;20456;-65
2024/02/16 07:40:25;;;;;;;15.33;11.47;;;10.50;99.90;;;;;;4974763;28;20554;-65
2024/02/16 07:42:52;;;;;;;20.73;11.50;;;10.60;99.90;;;;;;4959727;28;20814;-65
2024/02/16 07:45:19;;;;;;;14.03;9.77;;;10.60;99.90;;;;;;4957643;28;20450;-65
2024/02/16 07:47:48;;;;;;;19.17;10.90;;;10.60;99.90;;;;;;4960857;28;20436;-64
2024/02/16 07:50:14;;;;;;;16.80;11.17;;;10.70;99.90;;;;;;4969877;28;20541;-65
2024/02/16 07:52:42;;;;;;;20.53;11.10;;;10.70;99.90;;;;;;4973111;28;20510;-65
2024/02/16 07:55:09;;;;;;;14.90;10.53;;;10.70;99.90;;;;;;4961222;28;20486;-65
2024/02/16 07:57:38;;;;;;;19.27;10.87;;;10.80;99.90;;;;;;4969586;28;20526;-64
2024/02/16 08:00:06;;;;;;;16.83;11.80;;;11.00;99.90;;;;;;4963878;28;20474;-64
2024/02/16 08:02:33;;;;;;;18.23;8.23;;;10.90;99.90;;;;;;4961644;28;20473;-65
2024/02/16 08:05:01;;;;;;;15.30;8.63;;;11.00;99.90;;;;;;4954795;28;20531;-64
2024/02/16 08:07:28;;;;;;;13.20;9.50;;;11.00;99.90;;;;;;4959125;28;20890;-64
2024/02/16 08:09:55;;;;;;;18.00;11.37;;;11.10;99.90;;;;;;4954492;29;20507;-66
2024/02/16 08:12:22;;;;;;;20.17;10.23;;;11.20;99.90;;;;;;4954678;28;20448;-65
2024/02/16 08:14:48;;;;;;;15.30;10.47;;;11.20;99.90;;;;;;4953801;28;20491;-65
2024/02/16 08:17:15;;;;;;;17.53;9.57;;;11.30;99.90;;;;;;4954677;28;21114;-65
2024/02/16 08:19:42;;;;;;;13.27;8.50;;;11.40;99.90;;;;;;4955537;28;20499;-65
2024/02/16 08:22:11;;;;;;;14.53;10.07;;;11.40;99.90;;;;;;4953765;28;20527;-65
2024/02/16 08:24:38;;;;;;;15.27;9.00;;;11.40;99.90;;;;;;4954229;28;20516;-64
2024/02/16 08:27:05;;;;;;;15.43;10.77;;;11.50;99.90;;;;;;4954632;28;20828;-65
2024/02/16 08:29:32;;;;;;;13.47;9.70;;;11.50;99.90;;;;;;4953794;28;20547;-64
2024/02/16 08:31:59;;;;;;;12.80;8.40;;;11.60;99.90;;;;;;4954863;28;20500;-65
2024/02/16 08:34:26;;;;;;;15.40;9.60;;;11.70;99.90;;;;;;4954757;29;20487;-65
2024/02/16 08:36:53;;;;;;;14.10;9.93;;;11.80;99.90;;;;;;4954443;29;20459;-65
2024/02/16 08:39:24;;;;;;;18.10;10.10;;;11.90;99.90;;;;;;4954321;28;20497;-63
2024/02/16 08:41:51;;;;;;;14.43;9.13;;;12.00;99.90;;;;;;4954573;28;20452;-65
2024/02/16 08:44:18;;;;;;;13.70;9.50;;;12.10;99.90;;;;;;4954607;28;20476;-62
2024/02/16 08:46:46;;;;;;;17.10;8.70;;;12.20;99.90;;;;;;4954808;28;20499;-66
2024/02/16 08:49:13;;;;;;;14.30;9.20;;;12.30;99.90;;;;;;4957706;28;20471;-65
2024/02/16 08:51:40;;;;;;;19.13;10.47;;;12.30;99.90;;;;;;4965372;28;20508;-64
2024/02/16 08:54:07;;;;;;;17.90;10.63;;;12.40;99.90;;;;;;4962517;28;20526;-65
2024/02/16 08:56:35;;;;;;;14.70;9.87;;;12.50;99.90;;;;;;4973441;28;20464;-66
2024/02/16 08:59:02;;;;;;;16.90;9.27;;;12.50;99.90;;;;;;4957750;28;20543;-65
2024/02/16 09:01:32;;;;;;;12.50;8.30;;;12.60;99.90;;;;;;4954416;28;20530;-65
2024/02/16 09:03:59;;;;;;;21.27;10.50;;;12.60;99.90;;;;;;4954212;29;20531;-66
2024/02/16 09:06:26;;;;;;;19.13;9.07;;;12.70;99.90;;;;;;4954083;29;20454;-64
2024/02/16 09:08:53;;;;;;;19.17;9.20;;;12.80;99.90;;;;;;4953584;29;20555;-65
2024/02/16 09:11:20;;;;;;;15.70;8.70;;;12.80;99.90;;;;;;4970509;28;20478;-65
2024/02/16 09:13:49;;;;;;;14.20;7.93;;;12.80;99.90;;;;;;4973141;28;20526;-64
2024/02/16 09:16:16;;;;;;;18.27;7.77;;;12.90;99.90;;;;;;4973202;28;20571;-64
2024/02/16 09:18:43;;;;;;;20.80;9.53;;;13.00;99.90;;;;;;4968588;28;20603;-65
2024/02/16 09:21:10;;;;;;;15.00;8.70;;;13.00;99.90;;;;;;4951873;29;21213;-57
2024/02/16 09:23:38;;;;;;;21.13;9.87;;;13.20;99.90;;;;;;4952632;29;20452;-58
2024/02/16 09:26:05;;;;;;;17.40;10.93;;;13.70;99.90;;;;;;4969488;28;20546;-55
2024/02/16 09:28:33;;;;;;;14.57;9.23;;;13.60;99.90;;;;;;4971696;28;20530;-58
2024/02/16 09:31:01;;;;;;;18.80;9.77;;;13.70;99.90;;;;;;4972500;28;20804;-55
2024/02/16 09:33:28;;;;;;;15.47;8.50;;;13.80;99.90;;;;;;4973294;28;20448;-59
2024/02/16 09:35:55;;;;;;;16.30;9.37;;;13.90;99.90;;;;;;4973575;28;20483;-58
2024/02/16 09:38:22;;;;;;;15.37;8.70;;;13.90;99.90;;;;;;4973252;28;20462;-54
2024/02/16 09:40:49;;;;;;;13.63;8.50;;;14.10;99.90;;;;;;4981352;23;20586;-59
2024/02/16 09:43:25;;;;;;;7.73;6.63;;;14.10;99.90;;;;;;4972986;28;20452;-57
2024/02/16 09:45:54;;;;;;;12.53;7.13;;;14.30;99.90;;;;;;4973092;28;20982;-59
2024/02/16 09:48:23;;;;;;;7.13;5.30;;;14.30;99.90;;;;;;4972435;28;20455;-58
2024/02/16 09:50:51;;;;;;;9.53;7.20;;;14.30;99.90;;;;;;4972689;28;20575;-57
2024/02/16 09:53:19;;;;;;;9.90;7.03;;;14.20;99.90;;;;;;4973174;28;20530;-58
2024/02/16 09:55:46;;;;;;;9.00;6.20;;;14.10;99.90;;;;;;4972939;28;20578;-59
2024/02/16 09:58:17;;;;;;;12.07;7.60;;;14.00;99.90;;;;;;4973191;28;20531;-57
2024/02/16 10:00:48;;;;;;;8.10;5.40;;;14.00;99.90;;;;;;4972289;28;20820;-58
2024/02/16 10:03:24;;;;;;;7.20;5.67;;;14.10;99.90;;;;;;4972686;28;20486;-57
2024/02/16 10:05:52;;;;;;;6.67;5.63;;;14.20;99.90;;;;;;4972476;28;20530;-59
2024/02/16 10:08:19;;;;;;;9.20;5.60;;;14.20;99.90;;;;;;4972723;28;20447;-58
2024/02/16 10:10:46;;;;;;;14.60;6.50;;;14.20;99.90;;;;;;4972404;28;20558;-60
2024/02/16 10:13:12;;;;;;;7.77;5.60;;;14.20;99.90;;;;;;4972517;28;20478;-59
2024/02/16 10:15:39;;;;;;;10.60;6.20;;;14.20;99.90;;;;;;4972568;28;20479;-58
2024/02/16 10:18:07;;;;;;;7.70;5.53;;;14.30;99.90;;;;;;4972410;28;20530;-59
2024/02/16 10:20:36;;;;;;;7.60;5.40;;;14.30;99.90;;;;;;4970379;28;20513;-56
2024/02/16 10:23:04;;;;;;;7.00;5.10;;;14.40;99.90;;;;;;4970979;28;20449;-59
2024/02/16 10:25:31;;;;;;;7.73;5.70;;;14.50;99.90;;;;;;4970364;28;20526;-57
2024/02/16 10:27:59;;;;;;;9.40;5.20;;;14.50;99.90;;;;;;4971029;28;20502;-57
2024/02/16 10:30:31;;;;;;;8.60;5.43;;;14.50;99.90;;;;;;4970909;28;20463;-60
2024/02/16 10:32:59;;;;;;;6.10;4.40;;;14.60;99.90;;;;;;4971757;28;20922;-58
2024/02/16 10:35:27;;;;;;;6.40;5.00;;;14.50;99.90;;;;;;4972440;28;20488;-56
2024/02/16 10:37:55;;;;;;;7.20;5.20;;;14.50;99.90;;;;;;4972920;28;20447;-58
2024/02/16 10:40:24;;;;;;;6.30;4.63;;;14.60;99.90;;;;;;4975398;28;20504;-58
2024/02/16 10:42:51;;;;;;;7.97;4.90;;;14.70;99.90;;;;;;4976093;28;20498;-59
2024/02/16 10:45:19;;;;;;;5.60;4.30;;;14.60;99.90;;;;;;4975674;28;20947;-56
2024/02/16 10:47:46;;;;;;;9.30;4.53;;;14.50;99.90;;;;;;4975875;28;20562;-57
2024/02/16 10:50:13;;;;;;;5.40;3.60;;;14.50;99.90;;;;;;4975504;28;20593;-59
2024/02/16 10:52:44;;;;;;;9.27;5.20;;;14.50;99.90;;;;;;4975868;28;21249;-59
2024/02/16 10:55:12;;;;;;;6.87;4.67;;;14.50;99.90;;;;;;4975646;28;20908;-60
2024/02/16 10:57:40;;;;;;;5.37;4.80;;;14.40;99.90;;;;;;4975738;28;20546;-57
2024/02/16 11:00:11;;;;;;;6.30;4.60;;;14.40;99.90;;;;;;4975179;28;20471;-57
2024/02/16 11:02:55;;;;;;;6.00;5.27;;;14.40;99.90;;;;;;4975709;28;20832;-54
2024/02/16 11:05:34;;;;;;;6.33;4.60;;;14.50;99.90;;;;;;4975900;28;20443;-58
2024/02/16 11:08:02;;;;;;;12.80;4.47;;;14.50;99.90;;;;;;4975540;28;20470;-56
2024/02/16 11:10:30;;;;;;;5.57;4.50;;;14.60;99.90;;;;;;4974691;28;20463;-59
2024/02/16 11:13:03;;;;;;;6.50;4.50;;;14.60;99.90;;;;;;4975302;28;20939;-59
2024/02/16 11:15:31;;;;;;;7.07;5.07;;;14.60;99.90;;;;;;4961427;28;20484;-65
2024/02/16 11:17:58;;;;;;;4.83;4.33;;;14.60;99.90;;;;;;4955980;29;20448;-65
2024/02/16 11:20:26;;;;;;;5.13;4.13;;;14.60;99.90;;;;;;4955484;28;20471;-65
2024/02/16 11:22:54;;;;;;;7.07;4.43;;;14.60;99.90;;;;;;4961120;28;20471;-65
2024/02/16 11:25:32;;;;;;;6.17;4.27;;;14.70;99.90;;;;;;4969999;28;20439;-66
2024/02/16 11:27:59;;;;;;;6.10;4.77;;;14.80;99.90;;;;;;4966309;28;20535;-65
2024/02/16 11:30:27;;;;;;;9.80;4.53;;;14.90;99.90;;;;;;4955032;28;20558;-65
2024/02/16 11:32:53;;;;;;;5.50;4.00;;;14.90;99.90;;;;;;4954312;29;20451;-65
2024/02/16 11:35:20;;;;;;;6.47;4.30;;;15.10;99.90;;;;;;4956008;29;20578;-65
2024/02/16 11:37:47;;;;;;;7.30;5.60;;;15.20;99.90;;;;;;4955984;29;20798;-65
2024/02/16 11:40:14;;;;;;;8.40;4.43;;;15.30;99.90;;;;;;4968004;28;20493;-65
2024/02/16 11:42:44;;;;;;;8.53;5.43;;;15.40;99.90;;;;;;4974912;28;20443;-65
2024/02/16 11:45:12;;;;;;;5.40;3.80;;;15.60;99.90;;;;;;4975237;28;20458;-65
2024/02/16 11:47:40;;;;;;;6.40;4.47;;;15.80;99.90;;;;;;4975224;28;20446;-66
2024/02/16 11:50:10;;;;;;;6.13;4.83;;;16.10;99.90;;;;;;4973537;28;20463;-65
2024/02/16 11:52:37;;;;;;;7.53;4.73;;;16.30;99.90;;;;;;4974914;28;20444;-66
2024/02/16 11:55:08;;;;;;;6.37;4.07;;;16.50;99.90;;;;;;4974906;28;20881;-65
2024/02/16 11:57:39;;;;;;;6.70;4.70;;;16.50;99.90;;;;;;4975018;28;20461;-65
2024/02/16 12:00:10;;;;;;;6.10;4.20;;;16.70;99.90;;;;;;4974983;28;20499;-65
2024/02/16 12:02:37;;;;;;;5.33;4.10;;;16.80;99.90;;;;;;4975005;28;20447;-65
2024/02/16 12:05:05;;;;;;;6.33;4.10;;;17.00;99.90;;;;;;4974939;28;20478;-66
2024/02/16 12:07:33;;;;;;;5.03;4.53;;;17.10;99.90;;;;;;4974684;28;20974;-65
2024/02/16 12:10:02;;;;;;;9.00;3.70;;;17.20;99.90;;;;;;4973989;28;20471;-65
2024/02/16 12:12:29;;;;;;;4.40;3.47;;;17.30;99.90;;;;;;4974636;28;20534;-65
2024/02/16 12:14:56;;;;;;;5.40;3.60;;;17.30;99.90;;;;;;4974188;28;20538;-65
2024/02/16 12:17:25;;;;;;;9.93;4.27;;;17.30;99.90;;;;;;4974027;28;20549;-64
2024/02/16 12:19:53;;;;;;;5.80;3.80;;;17.30;99.90;;;;;;4973985;28;20510;-66
2024/02/16 12:22:20;;;;;;;4.23;3.73;;;17.20;99.90;;;;;;4967456;28;20973;-65
2024/02/16 12:24:47;;;;;;;5.83;4.50;;;17.20;99.90;;;;;;4953211;29;20443;-65
2024/02/16 12:27:15;;;;;;;4.97;4.30;;;17.10;99.90;;;;;;4953341;29;20486;-66
2024/02/16 12:29:42;;;;;;;5.37;3.60;;;17.30;99.90;;;;;;4953316;28;20551;-66
2024/02/16 12:32:10;;;;;;;5.30;3.70;;;17.30;99.90;;;;;;4953374;29;20456;-64
2024/02/16 12:34:38;;;;;;;5.70;4.47;;;17.10;99.90;;;;;;4953860;29;20444;-65
2024/02/16 12:37:07;;;;;;;5.00;4.47;;;17.10;99.90;;;;;;4954441;29;20485;-66
2024/02/16 12:39:34;;;;;;;7.33;4.57;;;17.10;99.90;;;;;;4961613;28;20470;-65
2024/02/16 12:42:01;;;;;;;4.00;3.57;;;17.20;99.90;;;;;;4973758;28;20865;-65